createdAt,value
2019-02-09T00:04:14.930Z,4.34
2019-02-09T00:09:23.400Z,6.73
2019-02-09T00:14:32.141Z,8.01
2019-02-09T00:19:40.653Z,5.49
2019-02-09T00:24:49.264Z,4.16
2019-02-09T00:29:57.774Z,6.71
2019-02-09T00:35:06.615Z,4.52
2019-02-09T00:40:15.064Z,5.66
2019-02-09T00:45:23.912Z,3.74
2019-02-09T00:50:32.409Z,5.47
2019-02-09T00:55:41.623Z,4.75
2019-02-09T01:00:50.021Z,5.50
2019-02-09T01:05:58.886Z,5.91
2019-02-09T01:11:07.418Z,4.15
2019-02-09T01:16:16.268Z,4.78
2019-02-09T01:21:24.736Z,5.30
2019-02-09T01:26:33.609Z,4.78
2019-02-09T01:31:42.249Z,4.51
2019-02-09T01:36:51.127Z,4.01
2019-02-09T01:41:59.637Z,5.05
2019-02-09T01:47:08.370Z,6.18
2019-02-09T01:52:17.019Z,7.46
2019-02-09T01:57:25.788Z,5.90
2019-02-09T02:02:34.928Z,5.72
2019-02-09T02:07:44.185Z,5.70
2019-02-09T02:12:59.336Z,6.55
2019-02-09T02:17:58.185Z,4.56
2019-02-09T02:23:07.185Z,4.81
2019-02-09T02:28:16.059Z,4.65
2019-02-09T02:33:24.644Z,5.49
2019-02-09T02:38:33.509Z,5.18
2019-02-09T02:43:41.981Z,4.68
2019-02-09T02:48:50.664Z,3.56
2019-02-09T02:53:59.233Z,4.15
2019-02-09T02:59:07.922Z,5.49
2019-02-09T03:04:16.356Z,3.83
2019-02-09T03:09:25.361Z,6.74
2019-02-09T03:14:33.804Z,6.22
2019-02-09T03:19:42.597Z,4.24
2019-02-09T03:24:51.036Z,4.67
2019-02-09T03:29:59.768Z,4.65
2019-02-09T03:35:08.902Z,4.83
2019-02-09T03:40:18.128Z,3.90
2019-02-09T03:45:26.477Z,4.37
2019-02-09T03:50:35.644Z,6.27
2019-02-09T03:55:44.462Z,3.19
2019-02-09T04:00:55.483Z,3.93
2019-02-09T04:06:02.174Z,3.48
2019-02-09T04:11:11.134Z,4.34
2019-02-09T04:16:19.513Z,3.64
2019-02-09T04:21:28.195Z,4.25
2019-02-09T04:26:36.543Z,5.31
2019-02-09T04:31:45.348Z,3.96
2019-02-09T04:36:53.708Z,4.16
2019-02-09T04:42:02.968Z,4.56
2019-02-09T04:47:11.482Z,4.12
2019-02-09T04:52:20.240Z,4.73
2019-02-09T04:57:28.851Z,3.95
2019-02-09T05:02:38.570Z,4.84
2019-02-09T05:07:46.956Z,4.81
2019-02-09T05:12:55.656Z,4.38
2019-02-09T05:18:04.077Z,4.51
2019-02-09T05:23:13.354Z,4.44
2019-02-09T05:28:21.812Z,3.64
2019-02-09T05:33:30.703Z,4.51
2019-02-09T05:38:39.076Z,4.18
2019-02-09T05:43:48.224Z,4.21
2019-02-09T05:48:57.292Z,3.38
2019-02-09T05:54:06.501Z,3.18
2019-02-09T05:59:15.494Z,3.25
2019-02-09T06:04:24.946Z,2.57
2019-02-09T06:09:33.832Z,2.28
2019-02-09T06:14:42.670Z,3.16
2019-02-09T06:19:51.708Z,2.55
2019-02-09T06:25:00.605Z,3.94
2019-02-09T06:30:09.212Z,2.75
2019-02-09T06:35:18.271Z,5.21
2019-02-09T06:40:27.983Z,4.89
2019-02-09T06:45:36.665Z,5.17
2019-02-09T06:50:45.100Z,4.22
2019-02-09T06:55:53.832Z,4.94
2019-02-09T07:01:02.665Z,4.08
2019-02-09T07:06:11.203Z,5.91
2019-02-09T07:11:19.536Z,3.79
2019-02-09T07:16:28.415Z,4.05
2019-02-09T07:21:36.966Z,3.93
2019-02-09T07:26:45.802Z,3.87
2019-02-09T07:31:56.583Z,4.15
2019-02-09T07:37:02.765Z,3.22
2019-02-09T07:42:11.372Z,4.59
2019-02-09T07:47:20.178Z,3.09
2019-02-09T07:52:28.851Z,2.97
2019-02-09T07:57:38.123Z,4.78
2019-02-09T08:02:46.706Z,3.77
2019-02-09T08:07:57.018Z,4.14
2019-02-09T08:12:55.703Z,4.31
2019-02-09T08:18:04.728Z,3.92
2019-02-09T08:23:15.002Z,4.43
2019-02-09T08:28:13.324Z,3.96
2019-02-09T08:33:22.138Z,4.18
2019-02-09T08:38:30.618Z,3.25
2019-02-09T08:43:39.551Z,3.07
2019-02-09T08:48:48.083Z,3.08
2019-02-09T08:53:56.929Z,3.88
2019-02-09T08:59:05.997Z,3.86
2019-02-09T09:04:15.282Z,3.58
2019-02-09T09:09:23.737Z,4.14
2019-02-09T09:14:32.759Z,3.29
2019-02-09T09:19:42.201Z,3.92
2019-02-09T09:24:51.290Z,4.24
2019-02-09T09:29:59.981Z,3.60
2019-02-09T09:35:08.899Z,3.66
2019-02-09T09:40:18.174Z,2.31
2019-02-09T09:45:27.088Z,3.57
2019-02-09T09:50:36.240Z,4.29
2019-02-09T09:55:45.246Z,4.32
2019-02-09T10:00:54.464Z,7.37
2019-02-09T10:06:03.400Z,6.88
2019-02-09T10:11:12.117Z,6.80
2019-02-09T10:16:21.105Z,6.82
2019-02-09T10:21:30.273Z,8.10
2019-02-09T10:26:39.309Z,6.59
2019-02-09T10:31:48.574Z,6.69
2019-02-09T10:36:57.633Z,8.73
2019-02-09T10:42:06.897Z,8.16
2019-02-09T10:47:16.034Z,7.17
2019-02-09T10:52:26.267Z,8.29
2019-02-09T10:57:25.436Z,10.56
2019-02-09T11:02:34.433Z,9.28
2019-02-09T11:07:43.797Z,9.25
2019-02-09T11:12:52.912Z,7.91
2019-02-09T11:18:03.974Z,7.28
2019-02-09T11:23:02.638Z,6.54
2019-02-09T11:28:11.585Z,8.94
2019-02-09T11:33:20.793Z,9.14
2019-02-09T11:38:29.184Z,7.69
2019-02-09T11:43:44.825Z,7.52
2019-02-09T11:48:44.725Z,8.98
2019-02-09T11:53:54.005Z,8.73
2019-02-09T11:59:03.288Z,7.02
2019-02-09T12:04:12.578Z,10.58
2019-02-09T12:09:21.763Z,9.38
2019-02-09T12:14:31.156Z,8.53
2019-02-09T12:19:40.157Z,8.56
2019-02-09T12:24:48.933Z,8.81
2019-02-09T12:29:57.940Z,9.20
2019-02-09T12:35:07.265Z,5.74
2019-02-09T12:40:16.341Z,8.72
2019-02-09T12:45:25.229Z,8.42
2019-02-09T12:50:33.539Z,5.69
2019-02-09T12:55:42.756Z,5.37
2019-02-09T13:00:51.691Z,5.06
2019-02-09T13:06:01.045Z,5.58
2019-02-09T13:11:09.567Z,7.40
2019-02-09T13:16:19.947Z,5.62
2019-02-09T13:21:18.946Z,5.60
2019-02-09T13:26:28.124Z,8.08
2019-02-09T13:31:36.939Z,5.31
2019-02-09T13:36:46.061Z,6.16
2019-02-09T13:41:55.518Z,6.99
2019-02-09T13:47:03.008Z,6.01
2019-02-09T13:52:12.519Z,8.50
2019-02-09T13:57:21.517Z,7.00
2019-02-09T14:02:35.254Z,8.81
2019-02-09T14:07:31.891Z,9.08
2019-02-09T14:12:40.860Z,6.89
2019-02-09T14:17:50.466Z,7.80
2019-02-09T14:22:59.412Z,8.64
2019-02-09T14:28:08.659Z,7.63
2019-02-09T14:33:17.954Z,8.56
2019-02-09T14:38:28.061Z,7.88
2019-02-09T14:43:27.274Z,7.78
2019-02-09T14:48:36.422Z,11.48
2019-02-09T14:53:45.710Z,9.03
2019-02-09T14:58:54.212Z,9.59
2019-02-09T15:04:03.392Z,6.75
2019-02-09T15:09:12.596Z,7.19
2019-02-09T15:14:20.409Z,6.29
2019-02-09T15:19:29.625Z,9.67
2019-02-09T15:24:38.561Z,10.26
2019-02-09T15:29:46.953Z,7.73
2019-02-09T15:34:55.933Z,8.26
2019-02-09T15:40:05.082Z,7.42
2019-02-09T15:45:13.958Z,9.05
2019-02-09T15:50:23.697Z,8.85
2019-02-09T15:55:32.204Z,6.45
2019-02-09T16:00:41.155Z,8.88
2019-02-09T16:05:49.658Z,8.33
2019-02-09T16:10:58.398Z,9.67
2019-02-09T16:16:06.901Z,8.27
2019-02-09T16:21:15.661Z,9.37
2019-02-09T16:26:24.313Z,8.52
2019-02-09T16:36:42.631Z,7.67
2019-02-09T16:41:51.058Z,8.56
2019-02-09T16:46:59.802Z,9.08
2019-02-09T16:52:08.224Z,6.74
2019-02-09T16:57:16.917Z,9.68
2019-02-09T17:02:25.571Z,8.54
2019-02-09T17:07:33.410Z,6.78
2019-02-09T17:12:41.708Z,7.24
2019-02-09T17:17:50.748Z,8.37
2019-02-09T17:22:59.242Z,6.46
2019-02-09T17:28:58.923Z,8.60
2019-02-09T17:34:07.309Z,7.63
2019-02-09T17:39:16.120Z,7.22
2019-02-09T17:44:24.513Z,8.11
2019-02-09T17:49:33.383Z,8.06
2019-02-09T17:54:41.823Z,9.17
2019-02-09T17:59:50.565Z,7.08
2019-02-09T18:04:59.248Z,6.64
2019-02-09T18:10:08.614Z,6.80
2019-02-09T18:15:21.614Z,9.10
2019-02-09T18:20:20.026Z,7.53
2019-02-09T18:25:29.278Z,7.65
2019-02-09T18:30:36.861Z,8.19
2019-02-09T18:35:45.289Z,8.79
2019-02-09T18:40:54.221Z,8.01
2019-02-09T18:46:02.642Z,9.05
2019-02-09T18:51:11.541Z,7.99
2019-02-09T18:56:20.456Z,7.39
2019-02-09T19:01:29.700Z,10.64
2019-02-09T19:06:38.050Z,10.33
2019-02-09T19:11:46.680Z,8.65
2019-02-09T19:16:55.068Z,9.60
2019-02-09T19:22:04.667Z,8.71
2019-02-09T19:27:13.084Z,8.05
2019-02-09T19:32:21.848Z,10.04
2019-02-09T19:37:30.229Z,6.89
2019-02-09T19:42:39.669Z,7.80
2019-02-09T19:47:48.018Z,7.64
2019-02-09T19:52:56.768Z,9.70
2019-02-09T19:58:05.166Z,8.29
2019-02-09T20:03:14.936Z,8.97
2019-02-09T20:08:23.292Z,10.14
2019-02-09T20:13:32.127Z,11.76
2019-02-09T20:18:40.479Z,8.35
2019-02-09T20:23:50.216Z,10.52
2019-02-09T20:28:59.203Z,10.21
2019-02-09T20:34:07.666Z,10.29
2019-02-09T20:39:16.016Z,10.62
2019-02-09T20:44:25.007Z,11.48
2019-02-09T20:49:33.417Z,11.26
2019-02-09T20:54:42.257Z,9.04
2019-02-09T21:00:04.643Z,12.19
2019-02-09T21:05:03.446Z,10.27
2019-02-09T21:10:12.360Z,8.89
2019-02-09T21:15:21.647Z,11.47
2019-02-09T21:20:30.543Z,10.19
2019-02-09T21:25:39.809Z,10.28
2019-02-09T21:30:48.660Z,12.31
2019-02-09T21:35:59.302Z,13.12
2019-02-09T21:40:57.708Z,9.90
2019-02-09T21:46:06.277Z,10.16
2019-02-09T21:51:15.114Z,14.20
2019-02-09T21:56:23.544Z,10.98
2019-02-09T22:01:32.235Z,13.10
2019-02-09T22:06:40.717Z,10.38
2019-02-09T22:11:55.344Z,12.71
2019-02-09T22:16:53.769Z,11.41
2019-02-09T22:22:02.339Z,13.94
2019-02-09T22:27:11.236Z,13.60
2019-02-09T22:32:19.826Z,10.72
2019-02-09T22:37:29.247Z,14.18
2019-02-09T22:42:37.619Z,12.40
2019-02-09T22:47:47.124Z,12.04
2019-02-09T22:52:55.606Z,11.74
2019-02-09T22:58:04.476Z,12.51
2019-02-09T23:03:13.003Z,14.02
2019-02-09T23:08:21.872Z,12.23
2019-02-09T23:13:30.290Z,12.35
2019-02-09T23:18:38.912Z,10.83
2019-02-09T23:23:47.556Z,12.61
2019-02-09T23:28:56.392Z,13.14
2019-02-09T23:34:04.773Z,8.74
2019-02-09T23:39:13.739Z,13.90
2019-02-09T23:44:22.241Z,12.07
2019-02-09T23:49:31.069Z,10.35
2019-02-09T23:54:39.561Z,13.89
2019-02-09T23:59:48.567Z,10.51
